createdAt,value
2018-06-02T00:00:38.127Z,13.60
2018-06-02T00:03:05.676Z,12.60
2018-06-02T00:05:33.359Z,13.50
2018-06-02T00:08:00.923Z,12.77
2018-06-02T00:10:28.514Z,13.95
2018-06-02T00:12:56.082Z,13.10
2018-06-02T00:15:24.469Z,10.93
2018-06-02T00:17:52.805Z,12.15
2018-06-02T00:20:20.405Z,12.32
2018-06-02T00:22:47.966Z,12.95
2018-06-02T00:25:16.331Z,13.85
2018-06-02T00:27:43.903Z,13.40
2018-06-02T00:30:11.494Z,13.70
2018-06-02T00:32:39.056Z,14.25
2018-06-02T00:35:06.656Z,12.55
2018-06-02T00:37:34.214Z,12.25
2018-06-02T00:40:01.791Z,13.32
2018-06-02T00:42:29.358Z,11.48
2018-06-02T00:44:56.948Z,11.77
2018-06-02T00:47:24.496Z,14.82
2018-06-02T00:49:52.852Z,13.65
2018-06-02T00:52:20.409Z,13.62
2018-06-02T00:54:59.895Z,11.32
2018-06-02T00:57:27.459Z,9.55
2018-06-02T00:59:55.042Z,9.95
2018-06-02T01:02:22.595Z,10.80
2018-06-02T01:04:50.169Z,11.70
2018-06-02T01:07:17.742Z,12.07
2018-06-02T01:09:45.333Z,13.13
2018-06-02T01:12:13.663Z,13.50
2018-06-02T01:14:42.017Z,12.27
2018-06-02T01:17:09.683Z,12.82
2018-06-02T01:19:37.272Z,14.50
2018-06-02T01:22:04.851Z,13.73
2018-06-02T01:24:32.415Z,14.20
2018-06-02T01:27:00.021Z,15.35
2018-06-02T01:29:27.585Z,15.35
2018-06-02T01:31:56.088Z,16.55
2018-06-02T01:34:23.645Z,14.98
2018-06-02T01:36:51.255Z,15.75
2018-06-02T01:39:19.593Z,16.67
2018-06-02T01:41:47.202Z,15.95
2018-06-02T01:44:14.815Z,15.82
2018-06-02T01:46:42.412Z,16.20
2018-06-02T01:49:10.730Z,15.65
2018-06-02T01:51:38.302Z,15.27
2018-06-02T01:54:05.872Z,16.40
2018-06-02T01:56:33.458Z,15.98
2018-06-02T01:59:01.792Z,18.60
2018-06-02T02:01:29.372Z,18.45
2018-06-02T02:03:56.935Z,18.70
2018-06-02T02:06:24.531Z,18.12
2018-06-02T02:08:52.091Z,18.77
2018-06-02T02:11:19.673Z,19.15
2018-06-02T02:13:47.249Z,18.40
2018-06-02T02:16:14.835Z,17.62
2018-06-02T02:18:42.391Z,19.35
2018-06-02T02:21:09.983Z,18.23
2018-06-02T02:23:38.333Z,19.65
2018-06-02T02:26:05.920Z,19.90
2018-06-02T02:28:34.246Z,19.50
2018-06-02T02:31:01.840Z,19.12
2018-06-02T02:33:30.171Z,18.62
2018-06-02T02:35:57.764Z,17.45
2018-06-02T02:38:25.892Z,20.73
2018-06-02T02:40:53.450Z,19.50
2018-06-02T02:43:21.041Z,21.33
2018-06-02T02:45:48.624Z,21.87
2018-06-02T02:48:16.212Z,19.08
2018-06-02T02:50:43.777Z,21.05
2018-06-02T02:53:11.369Z,22.15
2018-06-02T02:55:38.929Z,21.08
2018-06-02T02:58:06.509Z,21.20
2018-06-02T03:00:34.092Z,23.33
2018-06-02T03:03:02.445Z,22.00
2018-06-02T03:05:30.030Z,24.12
2018-06-02T03:07:58.391Z,21.98
2018-06-02T03:10:25.958Z,24.37
2018-06-02T03:12:53.563Z,20.52
2018-06-02T03:15:21.134Z,19.50
2018-06-02T03:17:48.732Z,25.67
2018-06-02T03:20:17.078Z,25.65
2018-06-02T03:22:44.691Z,23.33
2018-06-02T03:25:12.280Z,25.40
2018-06-02T03:27:39.867Z,26.75
2018-06-02T03:30:07.435Z,27.73
2018-06-02T03:32:35.011Z,27.77
2018-06-02T03:35:02.593Z,28.30
2018-06-02T03:37:30.959Z,27.30
2018-06-02T03:39:58.530Z,28.45
2018-06-02T03:42:28.112Z,28.95
2018-06-02T03:44:55.691Z,25.60
2018-06-02T03:47:24.053Z,23.42
2018-06-02T03:49:51.602Z,29.40
2018-06-02T03:52:19.212Z,28.58
2018-06-02T03:54:46.786Z,29.30
2018-06-02T03:57:14.359Z,28.40
2018-06-02T03:59:41.943Z,28.87
2018-06-02T04:02:09.523Z,25.85
2018-06-02T04:04:37.104Z,26.37
2018-06-02T04:07:05.445Z,26.98
2018-06-02T04:09:33.023Z,28.17
2018-06-02T04:12:01.363Z,29.33
2018-06-02T04:14:29.632Z,27.48
2018-06-02T04:16:57.207Z,30.37
2018-06-02T04:19:24.782Z,26.37
2018-06-02T04:21:52.331Z,29.05
2018-06-02T04:24:19.908Z,24.30
2018-06-02T04:26:47.499Z,23.20
2018-06-02T04:29:15.077Z,26.62
2018-06-02T04:31:42.652Z,26.27
2018-06-02T04:34:10.248Z,26.92
2018-06-02T04:36:37.796Z,26.37
2018-06-02T04:39:05.382Z,28.15
2018-06-02T04:41:33.766Z,27.37
2018-06-02T04:44:01.319Z,23.45
2018-06-02T04:46:28.907Z,29.58
2018-06-02T04:48:56.829Z,29.55
2018-06-02T04:51:24.383Z,28.83
2018-06-02T04:53:51.979Z,31.05
2018-06-02T04:56:19.547Z,31.35
2018-06-02T04:58:47.136Z,30.95
2018-06-02T05:01:14.720Z,28.05
2018-06-02T05:03:42.298Z,31.33
2018-06-02T05:06:09.911Z,29.27
2018-06-02T05:08:37.497Z,29.33
2018-06-02T05:11:05.090Z,23.67
2018-06-02T05:13:33.426Z,29.08
2018-06-02T05:16:01.041Z,28.55
2018-06-02T05:18:28.601Z,28.90
2018-06-02T05:20:56.186Z,27.83
2018-06-02T05:23:23.759Z,30.27
2018-06-02T05:25:51.344Z,27.27
2018-06-02T05:28:18.898Z,27.85
2018-06-02T05:30:46.507Z,28.35
2018-06-02T05:33:14.065Z,28.85
2018-06-02T05:35:41.668Z,30.08
2018-06-02T05:38:09.252Z,28.75
2018-06-02T05:40:36.913Z,29.10
2018-06-02T05:43:04.447Z,28.23
2018-06-02T05:45:32.028Z,31.12
2018-06-02T05:47:59.596Z,31.02
2018-06-02T05:50:27.948Z,28.95
2018-06-02T05:52:55.525Z,30.45
2018-06-02T05:55:23.103Z,31.95
2018-06-02T05:57:51.431Z,31.90
2018-06-02T06:00:19.029Z,30.67
2018-06-02T06:02:47.378Z,34.33
2018-06-02T06:05:14.972Z,32.08
2018-06-02T06:07:43.297Z,32.85
2018-06-02T06:10:10.884Z,30.08
2018-06-02T06:12:38.455Z,32.47
2018-06-02T06:15:06.040Z,33.50
2018-06-02T06:17:34.389Z,29.50
2018-06-02T06:20:02.758Z,31.45
2018-06-02T06:22:30.330Z,32.60
2018-06-02T06:24:58.740Z,32.65
2018-06-02T06:27:26.305Z,32.97
2018-06-02T06:29:53.884Z,32.95
2018-06-02T06:32:21.474Z,31.98
2018-06-02T06:34:49.035Z,33.90
2018-06-02T06:37:16.616Z,34.63
2018-06-02T06:39:44.954Z,35.45
2018-06-02T06:42:12.526Z,32.83
2018-06-02T06:44:40.139Z,33.67
2018-06-02T06:47:07.720Z,34.78
2018-06-02T06:49:35.268Z,32.13
2018-06-02T06:52:02.951Z,34.03
2018-06-02T06:54:30.529Z,34.33
2018-06-02T06:56:58.104Z,35.03
2018-06-02T06:59:25.666Z,33.95
2018-06-02T07:01:54.047Z,35.15
2018-06-02T07:04:21.626Z,34.40
2018-06-02T07:06:49.978Z,34.00
2018-06-02T07:09:17.539Z,34.00
2018-06-02T07:11:45.138Z,30.83
2018-06-02T07:14:12.708Z,30.75
2018-06-02T07:16:40.285Z,33.35
2018-06-02T07:19:07.882Z,30.73
2018-06-02T07:21:35.507Z,28.62
2018-06-02T07:24:03.054Z,31.73
2018-06-02T07:26:30.632Z,37.20
2018-06-02T07:28:58.204Z,32.95
2018-06-02T07:31:25.779Z,34.70
2018-06-02T07:33:53.342Z,34.28
2018-06-02T07:36:20.922Z,33.28
2018-06-02T07:38:49.280Z,34.08
2018-06-02T07:41:16.901Z,35.03
2018-06-02T07:43:44.517Z,29.90
2018-06-02T07:46:12.867Z,31.23
2018-06-02T07:48:40.499Z,26.12
2018-06-02T07:51:08.064Z,32.00
2018-06-02T07:53:35.658Z,29.70
2018-06-02T07:56:03.225Z,31.42
2018-06-02T07:58:30.806Z,32.42
2018-06-02T08:00:58.440Z,30.15
2018-06-02T08:03:26.019Z,26.73
2018-06-02T08:05:54.393Z,29.10
2018-06-02T08:08:22.774Z,28.48
2018-06-02T08:10:51.111Z,26.95
2018-06-02T08:13:18.693Z,26.17
2018-06-02T08:15:47.139Z,25.83
2018-06-02T08:18:14.710Z,30.73
2018-06-02T08:20:42.300Z,31.08
2018-06-02T08:23:09.913Z,31.55
2018-06-02T08:25:37.489Z,26.50
2018-06-02T08:28:05.085Z,29.10
2018-06-02T08:30:33.420Z,28.60
2018-06-02T08:33:01.053Z,30.37
2018-06-02T08:35:28.616Z,28.80
2018-06-02T08:37:56.199Z,31.62
2018-06-02T08:40:23.781Z,29.75
2018-06-02T08:42:51.371Z,29.85
2018-06-02T08:45:19.782Z,29.75
2018-06-02T08:47:47.392Z,31.35
2018-06-02T08:50:14.973Z,30.85
2018-06-02T08:52:43.340Z,30.62
2018-06-02T08:55:10.925Z,28.75
2018-06-02T08:57:38.517Z,30.52
2018-06-02T09:00:06.088Z,33.17
2018-06-02T09:02:33.659Z,31.60
2018-06-02T09:05:02.016Z,32.35
2018-06-02T09:07:30.004Z,29.85
2018-06-02T09:09:57.593Z,30.67
2018-06-02T09:12:25.923Z,28.17
2018-06-02T09:14:53.515Z,33.05
2018-06-02T09:17:21.091Z,31.95
2018-06-02T09:19:49.429Z,34.63
2018-06-02T09:22:17.017Z,34.63
2018-06-02T09:24:45.266Z,32.88
2018-06-02T09:27:12.837Z,31.08
2018-06-02T09:29:41.942Z,35.85
2018-06-02T09:32:09.520Z,38.45
2018-06-02T09:34:37.873Z,39.35
2018-06-02T09:37:06.430Z,35.78
2018-06-02T09:39:34.020Z,40.55
2018-06-02T09:42:01.576Z,38.00
2018-06-02T09:44:29.167Z,40.50
2018-06-02T09:46:57.545Z,41.70
2018-06-02T09:49:25.963Z,40.15
2018-06-02T09:51:53.537Z,38.33
2018-06-02T09:54:21.184Z,39.17
2018-06-02T09:56:48.749Z,37.25
2018-06-02T09:59:16.333Z,34.78
2018-06-02T10:01:43.889Z,35.90
2018-06-02T10:04:11.473Z,31.62
2018-06-02T10:06:39.039Z,31.92
2018-06-02T10:09:07.375Z,27.40
2018-06-02T10:11:35.703Z,29.20
2018-06-02T10:14:03.286Z,28.50
2018-06-02T10:16:30.847Z,32.13
2018-06-02T10:18:58.431Z,30.62
2018-06-02T10:21:26.019Z,28.20
2018-06-02T10:23:53.567Z,27.83
2018-06-02T10:26:21.168Z,28.23
2018-06-02T10:28:48.724Z,30.55
2018-06-02T10:31:17.074Z,39.90
2018-06-02T10:33:44.640Z,41.58
2018-06-02T10:36:12.231Z,38.90
2018-06-02T10:38:39.796Z,36.53
2018-06-02T10:41:07.380Z,38.70
2018-06-02T10:43:34.963Z,32.67
2018-06-02T10:46:02.592Z,32.60
2018-06-02T10:48:30.143Z,32.72
2018-06-02T10:50:57.723Z,29.63
2018-06-02T10:53:25.320Z,28.95
2018-06-02T10:55:52.907Z,31.05
2018-06-02T10:58:20.488Z,25.80
2018-06-02T11:00:48.093Z,25.10
2018-06-02T11:03:15.713Z,23.30
2018-06-02T11:05:43.289Z,23.45
2018-06-02T11:08:10.836Z,25.08
2018-06-02T11:10:38.425Z,28.02
2018-06-02T11:13:05.997Z,24.02
2018-06-02T11:15:33.927Z,26.23
2018-06-02T11:18:01.489Z,29.02
2018-06-02T11:20:29.074Z,26.20
2018-06-02T11:22:56.680Z,25.45
2018-06-02T11:25:24.326Z,25.50
2018-06-02T11:27:52.643Z,23.98
2018-06-02T11:30:20.220Z,27.42
2018-06-02T11:32:47.788Z,25.37
2018-06-02T11:35:15.392Z,24.23
2018-06-02T11:37:42.956Z,24.73
2018-06-02T11:40:10.544Z,27.33
2018-06-02T11:42:38.132Z,24.77
2018-06-02T11:45:05.684Z,22.65
2018-06-02T11:47:33.277Z,22.90
2018-06-02T11:50:01.604Z,22.75
2018-06-02T11:52:29.183Z,23.40
2018-06-02T11:54:57.075Z,24.10
2018-06-02T11:57:25.431Z,22.27
2018-06-02T11:59:52.975Z,25.30
2018-06-02T12:02:20.548Z,24.27
2018-06-02T12:04:48.114Z,25.73
2018-06-02T12:07:16.627Z,21.55
2018-06-02T12:09:44.981Z,26.23
2018-06-02T12:12:12.569Z,26.17
2018-06-02T12:14:40.146Z,27.42
2018-06-02T12:17:07.722Z,24.83
2018-06-02T12:19:35.672Z,25.58
2018-06-02T12:22:03.267Z,27.70
2018-06-02T12:24:30.964Z,25.55
2018-06-02T12:26:59.359Z,24.77
2018-06-02T12:29:26.913Z,25.85
2018-06-02T12:31:55.432Z,25.42
2018-06-02T12:34:22.988Z,26.17
2018-06-02T12:36:50.580Z,26.87
2018-06-02T12:39:18.137Z,31.08
2018-06-02T12:41:45.710Z,28.70
2018-06-02T12:44:13.263Z,27.77
2018-06-02T12:46:40.834Z,26.80
2018-06-02T12:49:09.170Z,29.30
2018-06-02T12:51:37.547Z,27.13
2018-06-02T12:54:05.212Z,26.10
2018-06-02T12:56:32.761Z,23.62
2018-06-02T12:59:00.345Z,22.70
2018-06-02T13:01:27.892Z,24.50
2018-06-02T13:03:55.481Z,24.42
2018-06-02T13:06:23.072Z,22.55
2018-06-02T13:08:50.713Z,23.00
2018-06-02T13:11:19.034Z,23.40
2018-06-02T13:13:46.608Z,20.75
2018-06-02T13:16:14.200Z,18.37
2018-06-02T13:18:41.784Z,18.10
2018-06-02T13:21:09.378Z,19.92
2018-06-02T13:23:36.963Z,21.50
2018-06-02T13:26:04.519Z,21.62
2018-06-02T13:28:32.099Z,23.05
2018-06-02T13:30:59.651Z,22.75
2018-06-02T13:33:27.225Z,24.75
2018-06-02T13:35:55.563Z,25.02
2018-06-02T13:38:23.175Z,24.30
2018-06-02T13:40:50.744Z,21.50
2018-06-02T13:43:19.088Z,20.67
2018-06-02T13:45:46.641Z,18.77
2018-06-02T13:48:14.247Z,19.75
2018-06-02T13:50:41.815Z,21.45
2018-06-02T13:53:09.387Z,20.62
2018-06-02T13:55:36.946Z,17.70
2018-06-02T13:58:04.526Z,18.52
2018-06-02T14:00:32.101Z,18.30
2018-06-02T14:02:59.710Z,22.92
2018-06-02T14:05:27.352Z,24.12
2018-06-02T14:07:55.711Z,20.75
2018-06-02T14:10:23.273Z,24.10
2018-06-02T14:12:50.849Z,25.00
2018-06-02T14:15:19.196Z,21.67
2018-06-02T14:17:47.607Z,23.02
2018-06-02T14:20:15.947Z,23.38
2018-06-02T14:22:43.498Z,21.33
2018-06-02T14:25:12.015Z,20.95
2018-06-02T14:27:40.077Z,22.60
2018-06-02T14:30:07.670Z,24.70
2018-06-02T14:32:35.232Z,20.55
2018-06-02T14:35:02.846Z,21.87
2018-06-02T14:37:30.401Z,23.00
2018-06-02T14:39:57.975Z,21.60
2018-06-02T14:42:25.543Z,21.40
2018-06-02T14:44:53.157Z,22.58
2018-06-02T14:47:20.711Z,23.35
2018-06-02T14:49:48.938Z,24.25
2018-06-02T14:52:16.498Z,22.02
2018-06-02T14:54:44.079Z,20.40
2018-06-02T14:57:11.669Z,21.60
2018-06-02T14:59:39.280Z,22.85
2018-06-02T15:02:07.620Z,22.20
2018-06-02T15:04:35.228Z,20.00
2018-06-02T15:07:03.591Z,20.05
2018-06-02T15:09:31.220Z,21.37
2018-06-02T15:11:58.803Z,21.12
2018-06-02T15:14:26.387Z,22.33
2018-06-02T15:16:54.740Z,23.33
2018-06-02T15:19:22.340Z,24.23
2018-06-02T15:21:49.932Z,22.52
2018-06-02T15:24:17.541Z,22.25
2018-06-02T15:26:45.893Z,20.50
2018-06-02T15:29:13.481Z,21.77
2018-06-02T15:31:41.830Z,21.33
2018-06-02T15:34:09.394Z,19.17
2018-06-02T15:36:37.799Z,20.25
2018-06-02T15:39:06.110Z,21.77
2018-06-02T15:41:33.678Z,20.30
2018-06-02T15:44:01.239Z,18.15
2018-06-02T15:46:28.844Z,17.73
2018-06-02T15:48:56.423Z,19.33
2018-06-02T15:51:24.797Z,20.37
2018-06-02T15:53:53.297Z,19.02
2018-06-02T15:56:20.871Z,20.00
2018-06-02T15:58:48.447Z,19.62
2018-06-02T16:01:16.662Z,20.17
2018-06-02T16:03:44.227Z,22.15
2018-06-02T16:06:12.567Z,21.23
2018-06-02T16:08:40.148Z,19.85
2018-06-02T16:11:07.739Z,20.12
2018-06-02T16:13:36.065Z,22.20
2018-06-02T16:16:03.667Z,20.37
2018-06-02T16:18:32.000Z,22.60
2018-06-02T16:20:59.570Z,24.40
2018-06-02T16:23:27.152Z,25.08
2018-06-02T16:25:54.750Z,23.42
2018-06-02T16:28:22.321Z,24.23
2018-06-02T16:30:49.909Z,23.27
2018-06-02T16:33:17.488Z,22.55
2018-06-02T16:35:45.102Z,21.67
2018-06-02T16:38:12.666Z,24.80
2018-06-02T16:40:40.255Z,22.08
2018-06-02T16:43:08.225Z,21.90
2018-06-02T16:45:35.802Z,22.62
2018-06-02T16:48:04.178Z,22.23
2018-06-02T16:50:32.530Z,22.62
2018-06-02T16:53:00.123Z,25.02
2018-06-02T16:55:28.531Z,22.08
2018-06-02T16:57:56.108Z,22.48
2018-06-02T17:00:23.673Z,21.83
2018-06-02T17:02:51.287Z,20.65
2018-06-02T17:05:19.641Z,23.08
2018-06-02T17:07:47.208Z,22.92
2018-06-02T17:10:14.785Z,22.08
2018-06-02T17:12:43.119Z,21.40
2018-06-02T17:15:10.724Z,20.17
2018-06-02T17:17:39.112Z,22.48
2018-06-02T17:20:06.740Z,21.77
2018-06-02T17:22:34.319Z,21.75
2018-06-02T17:25:02.690Z,19.67
2018-06-02T17:27:30.303Z,22.45
2018-06-02T17:29:57.905Z,23.00
2018-06-02T17:32:25.488Z,23.50
2018-06-02T17:34:53.819Z,20.20
2018-06-02T17:37:21.405Z,20.92
2018-06-02T17:39:48.982Z,22.20
2018-06-02T17:42:17.371Z,21.80
2018-06-02T17:44:44.955Z,18.92
2018-06-02T17:47:12.530Z,20.95
2018-06-02T17:49:40.855Z,21.30
2018-06-02T17:52:09.215Z,20.62
2018-06-02T17:54:36.836Z,21.60
2018-06-02T17:57:04.433Z,22.30
2018-06-02T17:59:31.991Z,19.95
2018-06-02T18:01:59.583Z,21.17
2018-06-02T18:04:27.188Z,20.83
2018-06-02T18:06:54.743Z,19.25
2018-06-02T18:09:22.356Z,23.05
2018-06-02T18:12:32.932Z,23.02
2018-06-02T18:15:01.379Z,21.90
2018-06-02T18:17:29.845Z,21.52
2018-06-02T18:19:58.249Z,21.10
2018-06-02T18:22:26.652Z,20.43
2018-06-02T18:24:55.042Z,22.02
2018-06-02T18:27:23.420Z,19.62
2018-06-02T18:29:51.823Z,21.23
2018-06-02T18:32:20.222Z,21.25
2018-06-02T18:34:48.612Z,19.73
2018-06-02T18:37:16.991Z,19.95
2018-06-02T18:39:45.414Z,20.97
2018-06-02T18:42:13.789Z,17.80
2018-06-02T18:44:42.169Z,22.02
2018-06-02T18:47:10.533Z,20.72
2018-06-02T18:49:38.933Z,20.15
2018-06-02T18:52:07.316Z,17.60
2018-06-02T18:54:35.724Z,22.22
2018-06-02T18:57:04.144Z,21.25
2018-06-02T18:59:32.540Z,23.10
2018-06-02T19:02:00.955Z,21.05
2018-06-02T19:04:29.362Z,22.05
2018-06-02T19:06:57.730Z,22.85
2018-06-02T19:09:26.125Z,22.05
2018-06-02T19:11:54.601Z,24.05
2018-06-02T19:14:22.996Z,21.70
2018-06-02T19:16:51.378Z,23.67
2018-06-02T19:19:19.794Z,23.57
2018-06-02T19:21:47.921Z,23.35
2018-06-02T19:24:16.349Z,24.02
2018-06-02T19:26:44.712Z,21.70
2018-06-02T19:29:13.085Z,26.87
2018-06-02T19:31:41.436Z,20.90
2018-06-02T19:34:09.855Z,22.32
2018-06-02T19:36:38.222Z,21.75
2018-06-02T19:39:06.646Z,21.48
2018-06-02T19:41:34.996Z,24.05
2018-06-02T19:44:03.421Z,21.42
2018-06-02T19:46:31.801Z,21.10
2018-06-02T19:49:00.139Z,21.82
2018-06-02T19:51:28.519Z,22.07
2018-06-02T19:53:56.864Z,21.95
2018-06-02T19:56:25.309Z,21.20
2018-06-02T19:58:53.677Z,21.73
2018-06-02T20:01:22.090Z,21.97
2018-06-02T20:03:50.470Z,21.95
2018-06-02T20:06:18.928Z,22.95
2018-06-02T20:08:47.275Z,21.10
2018-06-02T20:11:15.686Z,20.85
2018-06-02T20:13:44.051Z,19.80
2018-06-02T20:16:12.544Z,20.72
2018-06-02T20:18:47.702Z,21.50
2018-06-02T20:21:16.076Z,19.25
2018-06-02T20:23:44.420Z,19.45
2018-06-02T20:26:12.798Z,21.33
2018-06-02T20:28:41.152Z,19.80
2018-06-02T20:31:09.517Z,21.02
2018-06-02T20:33:37.868Z,22.52
2018-06-02T20:36:06.302Z,23.47
2018-06-02T20:38:34.628Z,22.27
2018-06-02T20:41:03.021Z,22.25
2018-06-02T20:43:31.383Z,21.35
2018-06-02T20:45:59.756Z,21.35
2018-06-02T20:48:28.088Z,20.68
2018-06-02T20:50:56.529Z,22.15
2018-06-02T20:53:24.901Z,20.57
2018-06-02T20:55:53.279Z,22.13
2018-06-02T20:58:21.654Z,19.87
2018-06-02T21:00:50.046Z,21.00
2018-06-02T21:03:18.400Z,19.52
2018-06-02T21:05:46.873Z,19.05
2018-06-02T21:08:15.222Z,20.95
2018-06-02T21:10:43.588Z,22.15
2018-06-02T21:13:11.936Z,21.12
2018-06-02T21:15:40.333Z,21.50
2018-06-02T21:18:08.703Z,21.23
2018-06-02T21:20:37.043Z,22.00
2018-06-02T21:23:05.410Z,24.12
2018-06-02T21:25:33.746Z,23.60
2018-06-02T21:28:02.107Z,23.18
2018-06-02T21:30:30.457Z,24.37
2018-06-02T21:32:58.862Z,24.87
2018-06-02T21:35:27.214Z,25.68
2018-06-02T21:37:55.601Z,24.02
2018-06-02T21:40:23.952Z,26.10
2018-06-02T21:42:53.360Z,22.93
2018-06-02T21:45:21.726Z,21.17
2018-06-02T21:47:50.153Z,25.70
2018-06-02T21:50:18.526Z,26.95
2018-06-02T21:52:46.936Z,27.58
2018-06-02T21:55:15.288Z,24.65
2018-06-02T21:57:44.190Z,27.73
2018-06-02T22:00:12.537Z,26.23
2018-06-02T22:02:40.907Z,29.65
2018-06-02T22:05:09.280Z,27.35
2018-06-02T22:07:37.639Z,27.17
2018-06-02T22:10:06.003Z,27.30
2018-06-02T22:12:34.530Z,28.12
2018-06-02T22:15:02.895Z,27.13
2018-06-02T22:17:31.218Z,28.07
2018-06-02T22:19:59.591Z,28.15
2018-06-02T22:22:28.062Z,27.15
2018-06-02T22:24:56.411Z,28.85
2018-06-02T22:27:24.778Z,27.98
2018-06-02T22:29:53.096Z,29.77
2018-06-02T22:32:21.466Z,28.25
2018-06-02T22:34:49.815Z,29.50
2018-06-02T22:37:18.211Z,29.02
2018-06-02T22:39:47.428Z,31.42
2018-06-02T22:42:15.799Z,29.30
2018-06-02T22:44:44.161Z,30.52
2018-06-02T22:47:12.568Z,30.37
2018-06-02T22:49:40.900Z,28.75
2018-06-02T22:52:09.235Z,27.32
2018-06-02T22:54:37.649Z,28.62
2018-06-02T22:57:06.058Z,25.65
2018-06-02T22:59:34.581Z,28.47
2018-06-02T23:02:02.972Z,28.77
2018-06-02T23:04:31.411Z,27.90
2018-06-02T23:06:59.965Z,28.27
2018-06-02T23:09:28.366Z,29.52
2018-06-02T23:11:56.737Z,30.80
2018-06-02T23:14:25.118Z,28.38
2018-06-02T23:16:53.470Z,28.95
2018-06-02T23:19:21.824Z,30.95
2018-06-02T23:21:49.891Z,29.95
2018-06-02T23:24:18.229Z,31.93
2018-06-02T23:26:46.581Z,26.40
2018-06-02T23:29:14.925Z,29.87
2018-06-02T23:31:43.294Z,31.75
2018-06-02T23:34:11.675Z,29.35
2018-06-02T23:36:40.027Z,32.28
2018-06-02T23:39:08.400Z,30.85
2018-06-02T23:41:36.752Z,30.50
2018-06-02T23:44:05.150Z,31.45
2018-06-02T23:46:33.493Z,30.15
2018-06-02T23:49:01.904Z,32.20
2018-06-02T23:51:30.231Z,34.48
2018-06-02T23:53:58.379Z,30.00
2018-06-02T23:56:27.280Z,31.60
2018-06-02T23:58:55.672Z,31.48
